Time;durP1;ratioP1;P1;durP2;ratioP2;P2;SDS_P1;SDS_P2;PMS_P1;PMS_P2;Temp;Humidity;BMP_temperature;BMP_pressure;BME280_temperature;BME280_humidity;BME280_pressure;Samples;Min_cycle;Max_cycle;Signal;HPM_P1;HPM_P2
2022/05/04 00:01:03;;;;;;;6.13;2.70;;;;;;;25.31;30.32;101826.50;5035799;28;20116;-42
2022/05/04 00:03:31;;;;;;;4.60;2.47;;;;;;;25.29;30.22;101832.56;5051786;28;20115;-46
2022/05/04 00:06:00;;;;;;;5.35;2.60;;;;;;;25.32;30.36;101844.00;5053653;28;20029;-44
2022/05/04 00:08:28;;;;;;;4.65;2.63;;;;;;;25.13;30.08;101818.22;5053016;28;20032;-46
2022/05/04 00:10:57;;;;;;;4.10;2.42;;;;;;;25.25;30.15;101839.50;5053345;28;20033;-43
2022/05/04 00:13:24;;;;;;;5.50;2.85;;;;;;;25.27;30.29;101840.41;5052417;28;20115;-42
2022/05/04 00:15:53;;;;;;;4.75;2.45;;;;;;;25.21;30.50;101837.63;5068600;28;20079;-42
2022/05/04 00:18:21;;;;;;;3.28;2.00;;;;;;;25.26;30.05;101838.63;5053419;28;20021;-47
2022/05/04 00:20:50;;;;;;;3.88;2.20;;;;;;;25.31;30.12;101844.88;5051934;28;20099;-43
2022/05/04 00:23:18;;;;;;;6.32;2.83;;;;;;;25.32;30.26;101825.63;5053085;28;20466;-43
2022/05/04 00:25:47;;;;;;;4.65;2.38;;;;;;;25.30;30.32;101829.06;5053138;28;20041;-45
2022/05/04 00:28:16;;;;;;;4.88;2.60;;;;;;;25.36;30.33;101831.84;5051610;28;20159;-44
2022/05/04 00:30:45;;;;;;;3.55;2.22;;;;;;;25.35;30.64;101827.44;5051282;28;20021;-42
2022/05/04 00:33:13;;;;;;;3.40;2.15;;;;;;;25.26;30.04;101822.88;5035584;28;20086;-47
2022/05/04 00:35:42;;;;;;;4.10;2.25;;;;;;;25.35;30.07;101824.81;5053097;28;20029;-42
2022/05/04 00:38:10;;;;;;;3.38;2.00;;;;;;;25.36;30.32;101826.59;5053447;28;20028;-45
2022/05/04 00:40:39;;;;;;;6.15;2.72;;;;;;;25.38;30.21;101826.59;5051880;28;20036;-46
2022/05/04 00:43:21;;;;;;;4.57;2.17;;;;;;;25.38;29.95;101832.75;5051782;28;20364;-42
2022/05/04 00:45:50;;;;;;;5.32;2.30;;;;;;;25.29;30.06;101820.31;5051455;28;20036;-46
2022/05/04 00:48:19;;;;;;;4.05;2.22;;;;;;;25.34;30.02;101818.66;5051885;28;20036;-47
2022/05/04 00:50:49;;;;;;;2.92;2.00;;;;;;;25.25;30.42;101820.19;5053009;28;20025;-44
2022/05/04 00:53:19;;;;;;;3.45;2.22;;;;;;;25.30;30.24;101821.19;5035742;28;20029;-47
2022/05/04 00:55:48;;;;;;;3.72;2.35;;;;;;;25.22;30.40;101817.53;5051885;28;20116;-45
2022/05/04 00:58:57;;;;;;;3.60;2.40;;;;;;;25.28;30.09;101822.91;5053006;28;20032;-44
2022/05/04 01:01:05;;;;;;;3.72;2.10;;;;;;;25.26;30.13;101825.50;5052911;28;20486;-46
2022/05/04 01:03:33;;;;;;;3.88;2.20;;;;;;;25.35;30.22;101835.31;5051989;28;20028;-45
2022/05/04 01:06:02;;;;;;;3.33;2.00;;;;;;;25.31;30.28;101833.47;5052920;28;20047;-47
2022/05/04 01:08:31;;;;;;;3.97;2.40;;;;;;;25.30;29.99;101834.31;5051499;28;20113;-48
2022/05/04 01:10:59;;;;;;;2.65;2.05;;;;;;;25.30;30.16;101832.59;5052786;28;20039;-45
2022/05/04 01:13:27;;;;;;;4.15;2.15;;;;;;;25.20;30.09;101814.88;5052777;28;20517;-42
2022/05/04 01:15:56;;;;;;;3.30;2.05;;;;;;;25.18;30.17;101824.44;5052760;28;20077;-43
2022/05/04 01:18:24;;;;;;;3.78;1.95;;;;;;;25.25;29.99;101833.34;5052386;28;20025;-46
2022/05/04 01:20:53;;;;;;;5.05;2.17;;;;;;;25.21;30.50;101832.38;5052620;28;20056;-42
2022/05/04 01:23:21;;;;;;;3.22;2.30;;;;;;;25.14;30.37;101820.88;5051634;28;20090;-43
2022/05/04 01:25:53;;;;;;;3.17;1.95;;;;;;;25.25;30.08;101820.19;5052917;28;20115;-43
2022/05/04 01:28:22;;;;;;;3.75;2.33;;;;;;;25.26;30.07;101822.88;5051309;28;20036;-45
2022/05/04 01:30:50;;;;;;;3.30;2.10;;;;;;;25.17;30.32;101817.41;5052851;28;20032;-47
2022/05/04 01:33:19;;;;;;;2.88;2.10;;;;;;;25.21;30.35;101816.63;5052603;28;20033;-47
2022/05/04 01:35:48;;;;;;;4.43;2.30;;;;;;;25.24;30.00;101808.81;5052860;28;20021;-47
2022/05/04 01:38:16;;;;;;;3.85;1.98;;;;;;;25.27;29.83;101808.91;5051505;28;20501;-45
2022/05/04 01:40:45;;;;;;;2.72;1.75;;;;;;;25.26;30.20;101814.09;5052842;28;20017;-46
2022/05/04 01:43:13;;;;;;;2.95;1.80;;;;;;;25.31;30.22;101808.13;5056393;28;20421;-46
2022/05/04 01:45:42;;;;;;;3.63;1.88;;;;;;;25.28;29.88;101794.00;5055974;28;20104;-45
2022/05/04 01:48:11;;;;;;;3.65;1.88;;;;;;;25.18;30.10;101780.72;5055589;28;20500;-44
2022/05/04 01:50:39;;;;;;;3.25;1.85;;;;;;;25.25;30.17;101807.97;5055741;28;20025;-47
2022/05/04 01:53:08;;;;;;;3.00;2.10;;;;;;;25.15;30.08;101785.00;5056008;28;20025;-45
2022/05/04 01:55:37;;;;;;;2.00;1.50;;;;;;;25.22;30.16;101809.66;5056006;28;20025;-44
2022/05/04 01:58:07;;;;;;;1.92;1.70;;;;;;;25.30;30.13;101810.69;5054521;28;20025;-43
2022/05/04 02:00:35;;;;;;;2.08;1.55;;;;;;;25.29;30.11;101798.41;5055936;28;20502;-43
2022/05/04 02:03:04;;;;;;;2.17;1.55;;;;;;;25.27;29.92;101802.75;5054551;28;20104;-45
2022/05/04 02:05:32;;;;;;;2.38;1.75;;;;;;;25.24;30.13;101811.47;5053965;28;20112;-44
2022/05/04 02:08:01;;;;;;;3.55;2.10;;;;;;;25.14;30.05;101810.38;5055330;28;20379;-47
2022/05/04 02:10:29;;;;;;;3.95;1.88;;;;;;;25.24;30.20;101819.34;5055583;28;20030;-46
2022/05/04 02:12:58;;;;;;;2.63;1.60;;;;;;;25.20;30.14;101811.38;5055837;28;20064;-42
2022/05/04 02:15:26;;;;;;;2.28;1.75;;;;;;;25.24;30.08;101814.09;5071020;28;20032;-42
2022/05/04 02:17:55;;;;;;;2.80;1.92;;;;;;;25.23;30.09;101806.19;5055694;28;20061;-44
2022/05/04 02:20:23;;;;;;;2.10;1.50;;;;;;;25.18;30.02;101803.44;5053629;28;20406;-42
2022/05/04 02:22:52;;;;;;;2.75;1.85;;;;;;;25.14;30.23;101785.88;5054535;28;20134;-46
2022/05/04 02:25:20;;;;;;;3.05;1.95;;;;;;;25.21;29.90;101793.00;5054138;28;20055;-46
2022/05/04 02:27:49;;;;;;;2.22;1.60;;;;;;;25.17;30.01;101789.44;5070406;28;20029;-44
2022/05/04 02:30:18;;;;;;;2.75;1.95;;;;;;;25.18;30.27;101796.47;5054798;28;20029;-43
2022/05/04 02:32:46;;;;;;;3.90;2.10;;;;;;;25.17;30.08;101799.03;5053188;28;20029;-42
2022/05/04 02:38:02;;;;;;;4.05;2.10;;;;;;;25.20;30.05;101801.72;5051127;28;20099;-48
2022/05/04 02:40:30;;;;;;;4.53;1.92;;;;;;;25.17;30.01;101804.28;5055245;28;20104;-45
2022/05/04 02:42:59;;;;;;;4.97;2.00;;;;;;;25.18;30.20;101798.19;5054772;28;20032;-45
2022/05/04 02:45:27;;;;;;;4.53;1.95;;;;;;;25.18;30.01;101799.09;5054891;28;20059;-47
2022/05/04 02:47:56;;;;;;;3.35;2.05;;;;;;;25.18;30.15;101791.22;5054657;28;20065;-43
2022/05/04 02:50:25;;;;;;;2.80;1.98;;;;;;;25.14;30.08;101793.75;5054520;28;20029;-48
2022/05/04 02:52:53;;;;;;;2.65;1.70;;;;;;;25.17;30.18;101799.03;5054395;28;20087;-45
2022/05/04 02:55:22;;;;;;;2.15;1.70;;;;;;;25.16;30.03;101799.88;5054367;28;20035;-47
2022/05/04 02:57:50;;;;;;;2.10;1.80;;;;;;;25.18;30.21;101801.72;5054369;28;20029;-43
2022/05/04 03:00:19;;;;;;;2.67;1.80;;;;;;;25.24;30.19;101794.78;5054661;28;20471;-46
2022/05/04 03:02:48;;;;;;;1.98;1.65;;;;;;;25.16;30.02;101802.50;5054491;28;20033;-43
2022/05/04 03:05:17;;;;;;;2.00;1.80;;;;;;;25.12;30.32;101801.56;5052946;28;20449;-42
2022/05/04 03:07:46;;;;;;;4.30;1.85;;;;;;;25.12;29.95;101804.19;5054134;28;20490;-47
2022/05/04 03:10:15;;;;;;;2.00;1.80;;;;;;;25.11;30.03;101798.94;5054462;28;20471;-47
2022/05/04 03:12:43;;;;;;;2.38;1.60;;;;;;;25.14;30.02;101801.63;5054240;28;20087;-43
2022/05/04 03:15:12;;;;;;;2.13;1.80;;;;;;;25.14;29.79;101804.25;5054145;28;20035;-50
2022/05/04 03:17:40;;;;;;;4.85;2.10;;;;;;;25.09;30.09;101800.63;5054687;28;20414;-49
2022/05/04 03:20:11;;;;;;;2.78;1.90;;;;;;;25.11;30.32;101794.53;5054100;28;20049;-49
2022/05/04 03:22:40;;;;;;;4.18;1.80;;;;;;;25.12;29.92;101795.44;5054128;28;20028;-45
2022/05/04 03:25:10;;;;;;;3.08;1.85;;;;;;;25.16;30.16;101797.25;5053973;28;20037;-48
2022/05/04 03:27:41;;;;;;;2.85;1.85;;;;;;;25.08;29.97;101796.22;5054025;28;20020;-47
2022/05/04 03:30:11;;;;;;;1.85;1.55;;;;;;;25.07;30.25;101797.94;5054257;28;20025;-49
2022/05/04 03:32:40;;;;;;;3.00;1.90;;;;;;;25.03;29.89;101789.13;5053898;28;20477;-45
2022/05/04 03:35:09;;;;;;;3.83;2.05;;;;;;;25.00;30.09;101781.19;5053733;28;20029;-44
2022/05/04 03:37:38;;;;;;;2.05;1.42;;;;;;;25.03;30.34;101786.50;5053808;28;20021;-49
2022/05/04 03:40:06;;;;;;;2.10;1.70;;;;;;;25.04;30.26;101784.78;5053916;28;20490;-46
2022/05/04 03:42:34;;;;;;;2.70;1.75;;;;;;;25.01;30.33;101782.09;5053801;28;20047;-48
2022/05/04 03:45:03;;;;;;;1.98;1.67;;;;;;;25.06;29.94;101779.56;5053930;28;20040;-49
2022/05/04 03:47:31;;;;;;;1.60;1.30;;;;;;;25.08;29.83;101788.34;5053381;28;20056;-48
2022/05/04 03:49:59;;;;;;;2.08;1.58;;;;;;;25.09;30.00;101790.13;5053665;28;20175;-50
2022/05/04 03:52:28;;;;;;;2.15;1.77;;;;;;;25.06;30.09;101780.47;5036013;28;20048;-43
2022/05/04 03:54:56;;;;;;;2.85;1.60;;;;;;;25.08;30.23;101789.22;5052174;28;20025;-48
2022/05/04 03:57:25;;;;;;;3.65;2.17;;;;;;;25.08;29.92;101783.97;5053474;28;20451;-47
2022/05/04 03:59:53;;;;;;;2.33;1.65;;;;;;;25.03;30.26;101778.63;5053474;28;20037;-43
2022/05/04 04:02:22;;;;;;;1.98;1.30;;;;;;;25.01;30.36;101780.34;5053466;28;20063;-49
2022/05/04 04:04:50;;;;;;;3.38;1.50;;;;;;;25.01;29.88;101779.47;5052769;28;20025;-43
2022/05/04 04:07:19;;;;;;;1.88;1.60;;;;;;;24.99;29.90;101765.41;5053201;28;20032;-49
2022/05/04 04:09:47;;;;;;;3.60;1.70;;;;;;;24.91;30.13;101757.38;5053520;28;20025;-43
2022/05/04 04:12:16;;;;;;;1.85;1.60;;;;;;;25.05;30.19;101772.53;5053238;28;20124;-43
2022/05/04 04:14:44;;;;;;;2.97;1.98;;;;;;;25.02;30.36;101776.84;5053342;28;20090;-43
2022/05/04 04:17:13;;;;;;;2.67;1.83;;;;;;;25.08;30.23;101776.09;5053044;28;20048;-43
2022/05/04 04:19:42;;;;;;;2.05;1.58;;;;;;;25.00;30.37;101772.44;5053064;28;20045;-44
2022/05/04 04:22:10;;;;;;;2.00;1.65;;;;;;;24.96;30.36;101768.88;5053685;28;20025;-43
2022/05/04 04:24:39;;;;;;;1.50;1.40;;;;;;;24.95;30.63;101766.19;5053197;28;20033;-44
2022/05/04 04:27:07;;;;;;;2.47;1.77;;;;;;;24.95;30.17;101767.09;5052570;28;20036;-43
2022/05/04 04:29:36;;;;;;;2.33;1.33;;;;;;;25.02;30.38;101774.22;5053174;28;20029;-44
2022/05/04 04:32:04;;;;;;;2.15;1.45;;;;;;;25.05;30.30;101780.41;5051719;28;20025;-47
2022/05/04 04:34:33;;;;;;;3.47;1.67;;;;;;;25.06;30.05;101775.22;5053173;28;20029;-45
2022/05/04 04:37:01;;;;;;;2.35;1.52;;;;;;;25.08;30.24;101776.09;5052899;28;20029;-44
2022/05/04 04:39:30;;;;;;;2.10;1.50;;;;;;;25.02;30.07;101770.75;5051340;28;20033;-47
2022/05/04 04:41:58;;;;;;;2.10;1.50;;;;;;;25.05;30.20;101772.53;5053069;28;20466;-50
2022/05/04 04:44:27;;;;;;;6.03;1.83;;;;;;;25.02;30.31;101773.38;5053105;28;20422;-50
2022/05/04 04:46:55;;;;;;;3.95;1.48;;;;;;;25.03;30.15;101780.38;5052968;28;20041;-46
2022/05/04 04:49:25;;;;;;;2.60;1.67;;;;;;;25.03;30.29;101780.38;5052796;28;20375;-42
2022/05/04 04:51:53;;;;;;;2.35;1.30;;;;;;;25.06;30.19;101785.72;5053116;28;20032;-50
2022/05/04 04:54:22;;;;;;;2.25;1.70;;;;;;;25.02;30.36;101781.22;5068271;28;20031;-46
2022/05/04 04:56:50;;;;;;;2.08;1.58;;;;;;;25.04;30.57;101787.41;5052870;28;20033;-44
2022/05/04 04:59:19;;;;;;;3.60;1.50;;;;;;;25.05;30.20;101788.28;5052947;28;20499;-44
2022/05/04 05:01:47;;;;;;;2.70;1.77;;;;;;;25.07;30.42;101790.06;5053069;28;20029;-45
2022/05/04 05:04:16;;;;;;;3.15;2.13;;;;;;;25.08;30.21;101783.97;5052768;28;20033;-43
2022/05/04 05:06:44;;;;;;;3.03;1.50;;;;;;;25.00;30.57;101786.44;5052869;28;20092;-44
2022/05/04 05:09:13;;;;;;;4.18;1.65;;;;;;;25.05;30.50;101790.91;5052652;28;20391;-44
2022/05/04 05:11:41;;;;;;;3.15;1.77;;;;;;;25.08;30.52;101788.34;5051292;28;20431;-43
2022/05/04 05:16:57;;;;;;;1.85;1.52;;;;;;;25.08;30.19;101794.47;5051958;28;20041;-43
2022/05/04 05:19:26;;;;;;;1.95;1.65;;;;;;;25.07;30.26;101794.47;5056186;28;20033;-46
2022/05/04 05:21:54;;;;;;;3.60;1.88;;;;;;;25.11;29.83;101796.31;5056519;28;20036;-46
2022/05/04 05:24:23;;;;;;;2.00;1.80;;;;;;;25.12;29.97;101795.44;5056514;28;20359;-43
2022/05/04 05:26:51;;;;;;;1.77;1.65;;;;;;;25.15;29.80;101795.53;5056573;28;20036;-43
2022/05/04 05:29:20;;;;;;;3.97;2.25;;;;;;;25.09;29.94;101790.13;5056473;28;20465;-43
2022/05/04 05:31:48;;;;;;;3.25;2.10;;;;;;;25.14;30.19;101797.25;5056326;28;20421;-47
2022/05/04 05:34:17;;;;;;;3.40;1.73;;;;;;;25.12;30.11;101791.06;5055235;28;20028;-46
2022/05/04 05:36:46;;;;;;;2.15;1.50;;;;;;;25.15;30.21;101795.53;5038492;28;20033;-47
2022/05/04 05:39:15;;;;;;;2.55;1.90;;;;;;;25.13;29.93;101798.09;5056415;28;20080;-43
2022/05/04 05:41:43;;;;;;;3.33;1.85;;;;;;;25.10;30.30;101782.28;5056004;28;20031;-42
2022/05/04 05:44:12;;;;;;;2.10;1.60;;;;;;;25.11;30.07;101799.78;5056160;28;20037;-47
2022/05/04 05:46:40;;;;;;;2.28;1.60;;;;;;;25.13;30.40;101797.22;5055980;28;20527;-43
2022/05/04 05:49:09;;;;;;;3.22;1.50;;;;;;;25.18;29.88;101798.19;5055996;28;20112;-42
2022/05/04 05:51:37;;;;;;;2.80;1.45;;;;;;;25.23;30.27;101801.81;5056155;28;20024;-42
2022/05/04 05:54:06;;;;;;;3.67;1.60;;;;;;;25.25;30.36;101810.59;5055542;28;20028;-42
2022/05/04 05:56:34;;;;;;;3.30;2.05;;;;;;;25.25;30.21;101813.22;5055656;28;20029;-43
2022/05/04 05:59:03;;;;;;;2.78;1.63;;;;;;;25.29;30.42;101817.69;5054370;28;20032;-44
2022/05/04 06:01:32;;;;;;;5.30;1.83;;;;;;;25.29;30.29;101808.91;5055808;28;20029;-43
2022/05/04 06:04:01;;;;;;;3.60;1.60;;;;;;;25.30;30.17;101815.94;5054497;28;20056;-42
2022/05/04 06:06:29;;;;;;;3.63;1.70;;;;;;;25.29;30.37;101816.78;5055698;28;20033;-43
2022/05/04 06:08:58;;;;;;;2.67;1.55;;;;;;;25.31;30.42;101817.72;5055348;28;20029;-43
2022/05/04 06:11:26;;;;;;;4.03;1.40;;;;;;;25.31;30.69;101822.97;5055338;28;20068;-44
2022/05/04 06:13:55;;;;;;;5.20;1.60;;;;;;;25.33;30.37;101822.13;5055539;28;20539;-47
2022/05/04 06:16:24;;;;;;;2.97;1.40;;;;;;;25.33;30.79;101823.91;5055376;28;20504;-43
2022/05/04 06:18:52;;;;;;;3.45;1.83;;;;;;;25.33;30.60;101821.25;5053819;28;20029;-46
2022/05/04 06:21:21;;;;;;;2.95;1.90;;;;;;;25.36;30.68;101821.34;5054951;28;20056;-47
2022/05/04 06:23:49;;;;;;;3.05;1.92;;;;;;;25.38;30.59;101821.34;5055358;28;20057;-43
2022/05/04 06:26:20;;;;;;;3.78;1.80;;;;;;;25.45;30.25;101816.28;5055401;28;20425;-42
2022/05/04 06:28:49;;;;;;;2.90;2.00;;;;;;;25.52;30.90;101824.31;5053123;28;20029;-48
2022/05/04 06:34:08;;;;;;;5.30;2.20;;;;;;;25.51;31.04;101819.91;5054734;28;20032;-44
2022/05/04 06:36:37;;;;;;;3.05;1.80;;;;;;;25.57;30.76;101827.88;5055106;28;20075;-42
2022/05/04 06:39:05;;;;;;;5.15;2.30;;;;;;;25.59;30.67;101828.81;5055048;28;20470;-42
2022/05/04 06:41:35;;;;;;;3.05;1.60;;;;;;;25.63;31.02;101823.66;5053845;28;20107;-47
2022/05/04 06:44:04;;;;;;;2.50;1.70;;;;;;;25.64;30.96;101827.16;5055027;28;20021;-49
2022/05/04 06:46:33;;;;;;;3.28;1.85;;;;;;;25.72;30.77;101838.72;5054778;28;20086;-47
2022/05/04 06:49:02;;;;;;;1.98;1.60;;;;;;;25.73;30.78;101831.72;5054774;28;20382;-47
2022/05/04 06:51:30;;;;;;;1.80;1.33;;;;;;;25.78;30.97;101840.59;5054586;28;20083;-46
2022/05/04 06:53:59;;;;;;;3.83;1.35;;;;;;;25.84;30.95;101845.06;5054609;28;20036;-42
2022/05/04 06:56:27;;;;;;;2.78;1.58;;;;;;;25.80;30.93;101836.25;5053463;28;20036;-43
2022/05/04 06:58:56;;;;;;;1.52;1.35;;;;;;;25.86;30.92;101843.34;5054561;28;20036;-45
2022/05/04 07:01:24;;;;;;;5.15;1.60;;;;;;;25.91;30.99;101850.47;5054608;28;20021;-50
2022/05/04 07:03:53;;;;;;;3.05;1.45;;;;;;;25.94;31.14;101850.53;5054648;28;20060;-49
2022/05/04 07:06:21;;;;;;;6.38;1.52;;;;;;;25.99;31.11;101845.34;5054672;28;20024;-43
2022/05/04 07:08:50;;;;;;;2.72;1.88;;;;;;;25.90;30.78;101825.03;5054280;28;20036;-42
2022/05/04 07:11:18;;;;;;;1.88;1.42;;;;;;;26.04;30.81;101843.69;5052940;28;20103;-42
2022/05/04 07:13:47;;;;;;;1.98;1.38;;;;;;;26.09;30.82;101855.16;5054041;28;20505;-42
2022/05/04 07:16:15;;;;;;;1.92;1.50;;;;;;;26.13;31.05;101850.91;5069620;28;20033;-43
2022/05/04 07:18:43;;;;;;;3.80;1.50;;;;;;;26.19;31.10;101847.50;5054167;28;20086;-42
2022/05/04 07:21:11;;;;;;;3.63;1.30;;;;;;;26.24;30.75;101853.69;5054173;28;20048;-42
2022/05/04 07:23:40;;;;;;;2.17;1.50;;;;;;;26.14;31.03;101834.28;5054364;28;20025;-46
2022/05/04 07:26:08;;;;;;;4.10;1.77;;;;;;;26.32;30.67;101853.84;5053556;28;20033;-46
2022/05/04 07:28:36;;;;;;;4.95;1.80;;;;;;;26.34;31.00;101853.03;5052798;28;20033;-43
2022/05/04 07:31:05;;;;;;;3.00;1.60;;;;;;;26.37;31.05;101854.81;5054221;28;20031;-42
2022/05/04 07:33:33;;;;;;;2.33;1.40;;;;;;;26.39;30.88;101859.22;5053655;28;20048;-42
2022/05/04 07:36:02;;;;;;;3.00;1.50;;;;;;;26.41;30.93;101867.16;5053672;28;20029;-42
2022/05/04 07:38:30;;;;;;;2.70;1.40;;;;;;;26.41;30.69;101859.25;5053251;28;20466;-45
2022/05/04 07:43:46;;;;;;;2.33;1.58;;;;;;;26.49;30.78;101870.78;5045692;28;20447;-44
2022/05/04 07:46:15;;;;;;;3.00;1.80;;;;;;;26.43;30.75;101860.19;5069328;28;20025;-45
2022/05/04 07:48:43;;;;;;;4.72;1.50;;;;;;;26.58;30.58;101877.94;5053041;28;20094;-42
2022/05/04 07:51:12;;;;;;;2.03;1.48;;;;;;;26.59;30.40;101881.47;5053119;28;20056;-44
2022/05/04 07:53:41;;;;;;;6.55;1.60;;;;;;;26.53;30.77;101863.84;5053619;28;20063;-42
2022/05/04 07:56:10;;;;;;;3.50;1.25;;;;;;;26.51;30.50;101858.53;5053431;28;20501;-42
2022/05/04 07:58:39;;;;;;;2.45;1.48;;;;;;;26.61;30.68;101872.75;5052246;28;20498;-46
2022/05/04 08:04:34;;;;;;;4.15;1.60;;;;;;;26.69;30.78;101872.88;5049434;28;20120;-44
2022/05/04 08:06:41;;;;;;;2.28;1.65;;;;;;;26.66;30.62;101867.53;5050091;28;20041;-47
2022/05/04 08:09:10;;;;;;;2.63;1.30;;;;;;;26.69;30.46;101867.59;5053801;28;20043;-45
2022/05/04 08:11:38;;;;;;;1.25;1.10;;;;;;;26.71;30.62;101862.38;5053267;28;20029;-43
2022/05/04 08:14:07;;;;;;;2.92;1.30;;;;;;;26.76;30.58;101868.56;5053455;28;20036;-43
2022/05/04 08:16:36;;;;;;;1.92;1.48;;;;;;;26.76;30.63;101866.84;5053284;28;20120;-44
2022/05/04 08:19:04;;;;;;;1.73;1.20;;;;;;;26.78;30.59;101875.66;5052271;28;20060;-47
2022/05/04 08:21:33;;;;;;;3.00;1.50;;;;;;;26.81;30.53;101875.72;5053328;28;20482;-46
2022/05/04 08:24:02;;;;;;;2.72;1.25;;;;;;;26.85;30.43;101881.94;5053416;28;20028;-43
2022/05/04 08:26:30;;;;;;;3.80;1.52;;;;;;;26.81;30.56;101878.34;5052104;28;20090;-47
2022/05/04 08:28:58;;;;;;;1.85;1.45;;;;;;;26.81;30.33;101867.81;5051913;28;20029;-45
2022/05/04 08:31:28;;;;;;;1.48;1.17;;;;;;;26.89;30.40;101873.19;5053023;28;20480;-43
2022/05/04 08:33:56;;;;;;;1.63;1.30;;;;;;;26.93;30.34;101874.16;5068680;28;20526;-45
2022/05/04 08:36:25;;;;;;;1.40;1.00;;;;;;;26.83;30.32;101852.06;5068320;28;20395;-45
2022/05/04 08:38:53;;;;;;;2.40;1.33;;;;;;;26.94;30.27;101878.56;5067734;28;20056;-44
2022/05/04 08:41:23;;;;;;;2.45;1.48;;;;;;;26.95;30.34;101880.31;5053110;28;20028;-44
2022/05/04 08:43:53;;;;;;;2.20;1.10;;;;;;;26.94;30.15;101882.06;5051771;28;20109;-44
2022/05/04 08:46:24;;;;;;;2.05;1.20;;;;;;;26.96;30.28;101879.47;5051641;28;20024;-43
2022/05/04 08:48:53;;;;;;;1.55;1.15;;;;;;;26.96;30.25;101885.59;5052718;28;20433;-44
2022/05/04 08:51:22;;;;;;;1.92;1.20;;;;;;;27.00;30.12;101876.00;5054576;28;20197;-43
2022/05/04 08:53:51;;;;;;;1.95;1.13;;;;;;;27.07;30.26;101880.50;5056672;28;20028;-47
2022/05/04 08:56:20;;;;;;;3.25;1.45;;;;;;;27.00;30.21;101865.47;5055655;28;20471;-45
2022/05/04 08:58:48;;;;;;;6.53;1.30;;;;;;;27.05;30.00;101876.09;5055745;28;20481;-44
2022/05/04 09:01:17;;;;;;;2.42;1.33;;;;;;;27.07;30.17;101877.88;5056639;28;20037;-45
2022/05/04 09:03:45;;;;;;;3.40;1.20;;;;;;;27.12;30.13;101885.81;5056796;28;20040;-45
2022/05/04 09:06:26;;;;;;;1.67;1.13;;;;;;;27.14;30.29;101879.69;5055696;28;20107;-43
2022/05/04 09:08:58;;;;;;;1.63;1.25;;;;;;;27.13;30.39;101882.31;5071990;28;20031;-48
2022/05/04 09:11:27;;;;;;;2.28;1.40;;;;;;;27.11;30.20;101884.06;5056672;28;20036;-45
2022/05/04 09:13:55;;;;;;;1.05;0.90;;;;;;;27.12;30.29;101889.34;5039286;28;20088;-43
2022/05/04 09:16:32;;;;;;;3.25;1.30;;;;;;;27.15;30.29;101894.63;5056634;28;20033;-43
2022/05/04 09:19:08;;;;;;;2.75;1.10;;;;;;;27.21;30.23;101896.50;5039148;28;20024;-44
2022/05/04 09:21:36;;;;;;;2.00;1.35;;;;;;;27.26;30.25;101893.94;5072049;28;20095;-43
2022/05/04 09:24:05;;;;;;;1.58;1.20;;;;;;;27.28;30.00;101895.72;5055473;28;20021;-43
2022/05/04 09:26:41;;;;;;;2.03;1.15;;;;;;;27.28;30.20;101902.75;5056692;28;20036;-46
2022/05/04 09:29:11;;;;;;;2.00;1.10;;;;;;;27.33;29.91;101914.22;5055956;28;20028;-44
2022/05/04 09:31:42;;;;;;;1.65;1.33;;;;;;;27.29;30.23;101902.75;5056381;28;20078;-47
2022/05/04 09:34:11;;;;;;;1.40;0.90;;;;;;;27.31;30.19;101900.13;5056481;28;20466;-43
2022/05/04 09:45:17;;;;;;;1.30;1.00;;;;;;;27.35;30.06;101883.50;5048601;28;20042;-43
2022/05/04 09:47:47;;;;;;;1.80;1.10;;;;;;;27.40;29.92;101891.47;5055307;28;20058;-46
2022/05/04 09:50:17;;;;;;;0.95;0.90;;;;;;;27.39;30.02;101889.69;5055632;28;20490;-43
2022/05/04 09:52:49;;;;;;;1.15;0.90;;;;;;;27.45;30.01;101887.13;5056257;28;20087;-44
2022/05/04 09:55:20;;;;;;;3.63;1.00;;;;;;;27.42;29.89;101888.00;5071343;28;20024;-47
2022/05/04 09:57:49;;;;;;;1.75;1.02;;;;;;;27.47;29.94;101884.56;5054823;28;20052;-45
2022/05/04 10:00:20;;;;;;;2.03;1.10;;;;;;;27.41;30.09;101883.59;5055545;28;20056;-44
2022/05/04 10:02:50;;;;;;;2.05;1.40;;;;;;;27.49;29.94;101889.00;5053527;28;20108;-44
2022/05/04 10:05:19;;;;;;;1.55;1.02;;;;;;;27.51;29.81;101883.72;5054694;28;20112;-45
2022/05/04 10:07:52;;;;;;;2.25;1.20;;;;;;;27.52;29.66;101889.03;5054342;28;20036;-47
2022/05/04 10:10:21;;;;;;;1.02;0.93;;;;;;;27.57;29.87;101899.63;5054489;28;20505;-43
2022/05/04 10:12:50;;;;;;;1.00;0.70;;;;;;;27.49;29.84;101882.81;5055601;28;20389;-45
2022/05/04 10:15:20;;;;;;;1.75;0.98;;;;;;;27.58;29.82;101886.47;5054161;28;20463;-45
2022/05/04 10:18:09;;;;;;;4.18;0.95;;;;;;;27.60;29.85;101889.13;5054476;28;20029;-45
2022/05/04 10:20:44;;;;;;;1.38;1.00;;;;;;;27.65;29.86;101897.09;5055118;28;20057;-44
2022/05/04 10:23:34;;;;;;;0.80;0.75;;;;;;;27.67;29.74;101893.59;5054136;28;20032;-45
2022/05/04 10:26:04;;;;;;;0.73;0.70;;;;;;;27.68;29.84;101887.44;5037563;28;20025;-45
2022/05/04 10:28:38;;;;;;;1.77;1.17;;;;;;;27.69;29.84;101883.94;5055042;28;20033;-44
2022/05/04 10:31:13;;;;;;;3.25;0.98;;;;;;;27.66;29.77;101893.59;5053873;28;20082;-47
2022/05/04 10:33:48;;;;;;;1.33;1.02;;;;;;;27.66;29.84;101896.22;5053960;28;20032;-46
2022/05/04 10:36:20;;;;;;;1.27;0.90;;;;;;;27.72;29.68;101897.19;5055009;28;20135;-46
2022/05/04 10:38:56;;;;;;;1.42;1.02;;;;;;;27.66;29.46;101889.19;5055128;28;20130;-43
2022/05/04 10:41:35;;;;;;;2.15;1.15;;;;;;;27.65;28.82;101897.97;5053988;28;20402;-46
2022/05/04 10:44:04;;;;;;;2.65;1.20;;;;;;;27.60;29.03;101892.63;5055015;28;20025;-43
2022/05/04 10:46:34;;;;;;;2.28;1.30;;;;;;;27.49;28.66;101875.81;5055190;28;20031;-43
2022/05/04 10:49:05;;;;;;;2.50;1.13;;;;;;;27.42;28.47;101884.47;5055506;28;20062;-45
2022/05/04 10:51:37;;;;;;;2.55;1.10;;;;;;;27.44;28.77;101882.72;5054500;28;20029;-46
2022/05/04 10:54:10;;;;;;;1.55;1.00;;;;;;;27.45;28.77;101884.50;5054855;28;20109;-47
2022/05/04 10:56:44;;;;;;;1.55;1.00;;;;;;;27.43;28.93;101876.59;5052981;28;20382;-44
2022/05/04 10:59:14;;;;;;;1.88;1.30;;;;;;;27.40;28.32;101884.44;5053681;28;20079;-44
2022/05/04 11:01:43;;;;;;;3.20;1.35;;;;;;;27.41;27.93;101891.50;5053741;28;20029;-43
2022/05/04 11:04:10;;;;;;;2.00;1.38;;;;;;;27.50;28.09;101897.75;5053720;28;20075;-44
2022/05/04 11:06:45;;;;;;;1.83;1.13;;;;;;;27.41;28.43;101899.41;5053091;28;20028;-47
2022/05/04 11:09:16;;;;;;;1.55;1.17;;;;;;;27.39;28.08;101897.59;5053161;28;20082;-43
2022/05/04 11:11:47;;;;;;;2.78;1.30;;;;;;;27.38;27.81;101907.25;5054045;28;20116;-47
2022/05/04 11:14:17;;;;;;;1.42;1.00;;;;;;;27.29;27.59;101901.88;5053051;28;20035;-46
2022/05/04 11:16:48;;;;;;;2.70;1.27;;;;;;;27.36;27.57;101902.84;5053157;28;20076;-46
2022/05/04 11:19:17;;;;;;;3.40;1.33;;;;;;;27.36;27.83;101898.44;5036263;28;20378;-44
2022/05/04 11:21:46;;;;;;;1.48;0.90;;;;;;;27.38;27.84;101907.25;5069703;28;20037;-43
2022/05/04 11:24:16;;;;;;;1.73;1.10;;;;;;;27.36;27.57;101902.84;5054197;28;20025;-44
2022/05/04 11:26:47;;;;;;;0.88;0.85;;;;;;;27.41;27.71;101898.50;5052764;28;20067;-43
2022/05/04 11:29:17;;;;;;;4.43;1.20;;;;;;;27.30;27.17;101890.47;5052681;28;20035;-45
2022/05/04 11:31:53;;;;;;;2.13;1.30;;;;;;;27.26;27.29;101886.03;5053882;28;20033;-43
2022/05/04 11:34:22;;;;;;;3.30;1.10;;;;;;;27.23;27.65;101894.75;5054690;28;20025;-45
2022/05/04 11:36:52;;;;;;;2.55;1.70;;;;;;;27.14;27.32;101894.63;5054070;28;20033;-44
2022/05/04 11:39:22;;;;;;;3.50;1.60;;;;;;;26.95;27.39;101897.00;5052950;28;20112;-48
2022/05/04 11:41:53;;;;;;;2.15;1.67;;;;;;;26.96;27.11;101869.81;5054072;28;20025;-48
2022/05/04 11:44:23;;;;;;;2.22;1.48;;;;;;;27.16;26.93;101892.91;5054168;28;20060;-47
2022/05/04 11:46:51;;;;;;;2.40;1.50;;;;;;;27.18;27.43;101899.09;5053678;28;20091;-43
2022/05/04 11:49:22;;;;;;;2.92;1.45;;;;;;;27.14;27.65;101899.91;5052644;28;20485;-44
2022/05/04 11:51:51;;;;;;;2.40;1.08;;;;;;;27.03;28.19;101905.00;5052535;28;20533;-43
2022/05/04 11:54:19;;;;;;;1.52;1.13;;;;;;;27.08;27.96;101897.16;5053991;28;20195;-45
2022/05/04 11:56:48;;;;;;;5.38;1.27;;;;;;;27.05;28.16;101887.47;5053770;28;20037;-44